Terminal Aerodrome Forecast
Issued by NWS

Home | Current Version | Previous Version | Text Only | Print | Product List | Glossary Off
Versions: 1 2 3 4 5 6 7 8 9 10 11 12 13 14 15 16 17

041
FTUS42 KMHX 290232 AAA
TAFISO
TAF AMD
KISO 290232Z 2903/2924 VRB03KT 4SM BR SCT002 SCT250
      TEMPO 2903/2907 1/2SM FG BKN002
     FM290700 VRB03KT 2SM BR SCT002
      TEMPO 2907/2910 1/2SM FG BKN002
     FM291100 03008KT P6SM BKN030
     FM291600 03009KT P6SM SCT110
      AMD LTD TO CLD VIS AND WIND=

USA.gov is the U.S. government's official web portal to all federal, state and local government web resources and services.